Terminal Aerodrome Forecast
Issued by NWS Lake Charles, LA

Home | Current Version | Previous Version | Text Only | Print | Product List | Glossary On
Versions: 1 2 3 4 5 6 7 8 9 10 11 12 13 14 15 16 17 18 19 20 21 22 23
000
FTUS44 KLCH 220521
TAFLCH
TAF
KLCH 220521Z 2206/2306 VRB04KT P6SM SCT050 BKN110
      TEMPO 2208/2212 2SM BR SCT010 BKN017
     FM221200 09008KT P6SM SCT015 BKN030
      TEMPO 2212/2216 BKN025 BKN045
     FM221600 07007KT P6SM SCT035 BKN050
      TEMPO 2218/2222 2SM TSRA SCT014 OVC018CB=

USA.gov is the U.S. government's official web portal to all federal, state and local government web resources and services.